createdAt,value
2019-01-10T00:02:41.650Z,1.70
2019-01-10T00:07:48.235Z,1.90
2019-01-10T00:12:54.384Z,2.23
2019-01-10T00:18:00.560Z,2.03
2019-01-10T00:23:06.842Z,2.10
2019-01-10T00:28:13.220Z,2.10
2019-01-10T00:33:19.292Z,2.13
2019-01-10T00:38:25.391Z,2.20
2019-01-10T00:43:31.623Z,1.60
2019-01-10T00:48:37.703Z,2.33
2019-01-10T00:53:43.834Z,1.80
2019-01-10T00:58:49.904Z,2.30
2019-01-10T01:03:56.322Z,1.90
2019-01-10T01:09:02.522Z,2.57
2019-01-10T01:14:09.269Z,2.20
2019-01-10T01:19:15.344Z,2.50
2019-01-10T01:24:21.398Z,1.90
2019-01-10T01:29:27.579Z,2.20
2019-01-10T01:34:33.897Z,2.13
2019-01-10T01:39:40.082Z,1.73
2019-01-10T01:44:46.194Z,1.93
2019-01-10T01:49:52.318Z,2.00
2019-01-10T01:54:58.383Z,2.00
2019-01-10T02:00:09.220Z,1.93
2019-01-10T02:05:15.782Z,1.87
2019-01-10T02:10:27.288Z,2.20
2019-01-10T02:15:33.398Z,1.67
2019-01-10T02:20:39.618Z,2.37
2019-01-10T02:25:45.773Z,1.80
2019-01-10T02:30:51.922Z,2.23
2019-01-10T02:35:58.171Z,1.60
2019-01-10T02:41:04.290Z,1.87
2019-01-10T02:46:10.377Z,1.57
2019-01-10T02:51:16.536Z,1.70
2019-01-10T02:56:23.091Z,2.03
2019-01-10T03:01:29.624Z,1.90
2019-01-10T03:06:35.952Z,2.00
2019-01-10T03:11:42.498Z,1.57
2019-01-10T03:16:48.786Z,1.97
2019-01-10T03:21:55.059Z,1.60
2019-01-10T03:27:01.342Z,2.00
2019-01-10T03:32:07.625Z,1.63
2019-01-10T03:37:13.827Z,1.77
2019-01-10T03:42:20.136Z,1.93
2019-01-10T03:47:26.317Z,1.70
2019-01-10T03:52:33.822Z,2.00
2019-01-10T03:57:40.112Z,2.43
2019-01-10T04:02:46.216Z,1.67
2019-01-10T04:07:52.775Z,2.10
2019-01-10T04:12:58.933Z,1.63
2019-01-10T04:18:05.031Z,2.17
2019-01-10T04:23:11.072Z,2.13
2019-01-10T04:28:17.240Z,1.90
2019-01-10T04:33:23.368Z,1.80
2019-01-10T04:38:29.565Z,1.73
2019-01-10T04:43:35.851Z,2.60
2019-01-10T04:48:42.082Z,2.10
2019-01-10T04:53:48.202Z,2.77
2019-01-10T04:58:54.303Z,1.83
2019-01-10T05:04:00.389Z,1.70
2019-01-10T05:09:07.815Z,2.03
2019-01-10T05:14:16.646Z,1.70
2019-01-10T05:19:21.613Z,1.73
2019-01-10T05:24:27.692Z,1.60
2019-01-10T05:29:33.820Z,1.57
2019-01-10T05:34:39.987Z,1.87
2019-01-10T05:39:47.589Z,1.87
2019-01-10T05:44:54.038Z,1.73
2019-01-10T05:50:00.202Z,1.77
2019-01-10T05:55:08.598Z,1.80
2019-01-10T06:00:20.610Z,1.93
2019-01-10T06:05:26.819Z,1.73
2019-01-10T06:10:32.988Z,1.93
2019-01-10T06:15:39.159Z,1.83
2019-01-10T06:20:45.279Z,2.07
2019-01-10T06:25:51.361Z,1.63
2019-01-10T06:30:57.477Z,1.63
2019-01-10T06:36:03.602Z,1.77
2019-01-10T06:41:09.727Z,2.10
2019-01-10T06:46:15.885Z,1.90
2019-01-10T06:51:21.958Z,2.20
2019-01-10T06:56:28.056Z,1.70
2019-01-10T07:01:34.269Z,1.90
2019-01-10T07:06:40.457Z,1.70
2019-01-10T07:11:46.510Z,1.90
2019-01-10T07:16:53.697Z,1.93
2019-01-10T07:22:00.098Z,2.00
2019-01-10T07:27:06.382Z,2.47
2019-01-10T07:32:12.584Z,2.20
2019-01-10T07:37:18.764Z,1.97
2019-01-10T07:42:24.949Z,2.10
2019-01-10T07:47:47.165Z,2.27
2019-01-10T07:52:53.324Z,2.10
2019-01-10T07:57:59.434Z,2.17
2019-01-10T08:03:08.683Z,2.30
2019-01-10T08:08:14.708Z,2.10
2019-01-10T08:13:20.804Z,2.40
2019-01-10T08:18:26.950Z,2.17
2019-01-10T08:23:33.100Z,2.13
2019-01-10T08:28:39.195Z,2.97
2019-01-10T08:33:45.286Z,2.53
2019-01-10T08:38:51.382Z,2.27
2019-01-10T08:43:57.505Z,2.40
2019-01-10T08:49:03.568Z,2.50
2019-01-10T08:54:09.758Z,2.20
2019-01-10T08:59:15.917Z,2.37
2019-01-10T09:04:22.142Z,2.17
2019-01-10T09:09:28.286Z,2.37
2019-01-10T09:14:34.433Z,1.87
2019-01-10T09:19:40.474Z,2.37
2019-01-10T09:24:46.810Z,2.33
2019-01-10T09:29:52.889Z,1.93
2019-01-10T09:34:59.242Z,2.40
2019-01-10T09:40:06.544Z,2.20
2019-01-10T09:45:15.419Z,1.90
2019-01-10T09:50:22.406Z,2.53
2019-01-10T09:55:28.723Z,2.63
2019-01-10T10:00:34.882Z,2.03
2019-01-10T10:05:41.102Z,2.40
2019-01-10T10:10:47.181Z,2.33
2019-01-10T10:15:53.250Z,2.03
2019-01-10T10:20:59.341Z,2.77
2019-01-10T10:26:05.456Z,2.10
2019-01-10T10:31:13.230Z,2.67
2019-01-10T10:36:19.371Z,2.53
2019-01-10T10:41:25.605Z,2.37
2019-01-10T10:46:31.747Z,2.33
2019-01-10T10:51:37.831Z,2.13
2019-01-10T10:56:43.967Z,1.90
2019-01-10T11:02:02.186Z,1.97
2019-01-10T11:07:08.374Z,2.00
2019-01-10T11:12:14.467Z,2.00
2019-01-10T11:17:20.553Z,2.43
2019-01-10T11:22:27.806Z,2.07
2019-01-10T11:27:34.818Z,2.47
2019-01-10T11:32:40.979Z,2.30
2019-01-10T11:37:47.118Z,2.40
2019-01-10T11:42:53.194Z,2.40
2019-01-10T11:47:59.304Z,2.63
2019-01-10T11:53:05.474Z,2.93
2019-01-10T11:58:13.211Z,3.17
2019-01-10T12:03:19.315Z,2.50
2019-01-10T12:08:25.403Z,2.70
2019-01-10T12:13:31.511Z,2.43
2019-01-10T12:18:37.591Z,2.20
2019-01-10T12:23:43.740Z,2.60
2019-01-10T12:28:49.943Z,2.73
2019-01-10T12:33:56.117Z,2.23
2019-01-10T12:39:03.470Z,2.83
2019-01-10T12:44:09.975Z,2.40
2019-01-10T12:49:16.050Z,2.90
2019-01-10T12:54:22.222Z,2.53
2019-01-10T12:59:28.503Z,2.73
2019-01-10T13:04:34.822Z,2.57
2019-01-10T13:09:40.826Z,2.67
2019-01-10T13:14:47.007Z,2.93
2019-01-10T13:19:53.192Z,2.97
2019-01-10T13:24:59.325Z,2.80
2019-01-10T13:30:08.085Z,2.80
2019-01-10T13:35:14.485Z,2.47
2019-01-10T13:40:20.857Z,2.27
2019-01-10T13:45:27.109Z,2.27
2019-01-10T13:50:33.464Z,2.20
2019-01-10T13:55:39.552Z,1.30
2019-01-10T14:00:45.776Z,1.60
2019-01-10T14:05:51.902Z,1.00
2019-01-10T14:10:58.047Z,1.73
2019-01-10T14:16:04.239Z,1.30
2019-01-10T14:21:10.482Z,1.33
2019-01-10T14:26:16.712Z,1.13
2019-01-10T14:31:22.934Z,0.90
2019-01-10T14:36:29.031Z,1.00
2019-01-10T14:41:35.086Z,0.80
2019-01-10T14:46:41.171Z,0.50
2019-01-10T14:51:47.242Z,1.97
2019-01-10T14:56:57.925Z,1.10
2019-01-10T15:02:01.095Z,1.00
2019-01-10T15:07:07.282Z,0.80
2019-01-10T15:12:13.530Z,0.70
2019-01-10T15:17:19.587Z,0.60
2019-01-10T15:22:25.679Z,0.70
2019-01-10T15:27:31.800Z,0.63
2019-01-10T15:32:37.910Z,0.93
2019-01-10T15:37:43.982Z,0.70
2019-01-10T15:42:50.050Z,0.80
2019-01-10T15:47:56.175Z,0.93
2019-01-10T15:53:02.373Z,0.80
2019-01-10T15:58:08.640Z,0.43
2019-01-10T16:03:14.807Z,1.20
2019-01-10T16:08:20.893Z,0.90
2019-01-10T16:13:27.083Z,1.17
2019-01-10T16:18:34.522Z,1.10
2019-01-10T16:23:40.751Z,1.60
2019-01-10T16:28:46.927Z,2.00
2019-01-10T16:33:53.028Z,2.03
2019-01-10T16:38:59.080Z,1.93
2019-01-10T16:44:05.444Z,2.10
2019-01-10T16:49:11.629Z,1.87
2019-01-10T16:54:17.793Z,2.07
2019-01-10T16:59:23.956Z,1.93
2019-01-10T17:04:30.090Z,1.83
2019-01-10T17:09:36.288Z,2.67
2019-01-10T17:14:42.426Z,2.67
2019-01-10T17:19:48.544Z,2.63
2019-01-10T17:24:57.098Z,1.93
2019-01-10T17:30:03.459Z,2.33
2019-01-10T17:35:12.726Z,2.50
2019-01-10T17:40:19.802Z,2.10
2019-01-10T17:45:29.463Z,2.00
2019-01-10T17:50:36.831Z,2.10
2019-01-10T17:55:42.920Z,2.30
2019-01-10T18:00:49.716Z,2.23
2019-01-10T18:05:55.984Z,2.00
2019-01-10T18:11:02.187Z,1.87
2019-01-10T18:16:08.265Z,2.70
2019-01-10T18:21:15.067Z,3.13
2019-01-10T18:26:21.335Z,3.03
2019-01-10T18:31:27.477Z,2.10
2019-01-10T18:36:33.840Z,2.07
2019-01-10T18:41:39.998Z,2.57
2019-01-10T18:46:46.150Z,2.23
2019-01-10T18:51:52.343Z,2.27
2019-01-10T18:56:58.476Z,2.40
2019-01-10T19:02:04.664Z,2.17
2019-01-10T19:07:10.891Z,2.70
2019-01-10T19:12:17.014Z,2.80
2019-01-10T19:17:26.172Z,3.07
2019-01-10T19:22:31.377Z,2.90
2019-01-10T19:27:37.577Z,4.97
2019-01-10T19:32:43.667Z,5.33
2019-01-10T19:37:51.414Z,5.90
2019-01-10T19:42:57.652Z,6.40
2019-01-10T19:48:09.542Z,6.50
2019-01-10T19:53:11.674Z,7.50
2019-01-10T19:58:17.781Z,7.63
2019-01-10T20:03:24.120Z,7.93
2019-01-10T20:08:30.318Z,8.33
2019-01-10T20:13:36.702Z,9.17
2019-01-10T20:18:42.905Z,10.80
2019-01-10T20:23:49.151Z,9.33
2019-01-10T20:28:55.354Z,11.37
2019-01-10T20:34:01.534Z,12.93
2019-01-10T20:39:09.023Z,14.40
2019-01-10T20:44:15.162Z,14.97
2019-01-10T20:49:26.766Z,16.60
2019-01-10T20:54:33.131Z,18.13
2019-01-10T20:59:39.302Z,16.83
2019-01-10T21:04:45.629Z,17.33
2019-01-10T21:09:51.805Z,18.27
2019-01-10T21:14:57.883Z,18.67
2019-01-10T21:20:04.726Z,19.43
2019-01-10T21:25:11.479Z,20.17
2019-01-10T21:30:18.916Z,20.20
2019-01-10T21:35:25.098Z,21.60
2019-01-10T21:40:32.537Z,23.07
2019-01-10T21:45:40.408Z,24.33
2019-01-10T21:50:46.607Z,23.30
2019-01-10T21:55:52.799Z,24.57
2019-01-10T22:00:58.906Z,24.57
2019-01-10T22:06:05.082Z,27.13
2019-01-10T22:11:11.288Z,25.37
2019-01-10T22:16:17.405Z,24.67
2019-01-10T22:21:23.617Z,22.83
2019-01-10T22:26:29.750Z,22.90
2019-01-10T22:31:39.142Z,22.13
2019-01-10T22:36:45.843Z,20.10
2019-01-10T22:41:52.270Z,20.10
2019-01-10T22:47:00.069Z,20.73
2019-01-10T22:52:07.802Z,20.83
2019-01-10T22:57:13.973Z,19.83
2019-01-10T23:02:20.087Z,19.83
2019-01-10T23:07:26.966Z,19.30
2019-01-10T23:12:35.091Z,18.97
2019-01-10T23:18:00.564Z,18.87
2019-01-10T23:23:08.734Z,17.73
2019-01-10T23:28:14.912Z,19.03
2019-01-10T23:33:21.170Z,20.47
2019-01-10T23:38:27.292Z,19.30
2019-01-10T23:43:33.980Z,17.67
2019-01-10T23:48:41.216Z,14.87
2019-01-10T23:53:47.474Z,15.17
2019-01-10T23:59:05.219Z,16.03
